Townley, New Jersey
Current Conditions -  °F | °C
As of 5:01 PM on Thursday 27 Nov 2014 (Local Time) from KEWR Reporting Station
Broken Clouds Broken Clouds  
Wind Chill: 29°   Ceiling: 5000
Heat Index: 36°   Visibility: 10mi
Dew Point: 28°   Wind: 8mph
Humidity: 75%   Direction: 300°WNW
Pressure: 30.02"   Gusts: NA
Location:  40.6941°N, 74.2694°W
Report Text: KEWR 272201Z 30007KT 10SM SCT026 BKN050 BKN130 02/M02 A3002 RMK AO2 $
Loading
Personal Weather Stations






























Interactive Weather Map New forecast layout! Learn more

10-Day Weather Forecast

Advertisements
Track Severe Weather on mobile